NJE231 ENGM-ENTO
Flight info
| Callsign | NJE231 |
|---|---|
| Flight time | N/A |
| Altitude | 21000 |
| Route | ATLAP DCT TOR |
| Aircraft | C750/M-SBDE3FGHRWXY/S |
Departure
| Time | 2026-05-07 13:45 |
|---|---|
| Airport | Oslo-Gardermoen International Airport (ENGM) |
Arrival
| Time | N/A |
|---|---|
| Airport | Sandefjord Airport, Torp (ENTO) |
| Time | Latitude | Longitude | Altitude | Speed | Heading |
|---|---|---|---|---|---|
| 2026-05-07 13:29 | 60.19987 | 11.07685 | 687 ft | 0 kts | 266° |
| 2026-05-07 13:40 | 60.19992 | 11.07670 | 688 ft | 3 kts | 314° |
| 2026-05-07 13:40 | 60.20028 | 11.07696 | 688 ft | 9 kts | 27° |
| 2026-05-07 13:41 | 60.20108 | 11.07766 | 685 ft | 15 kts | 16° |
| 2026-05-07 13:41 | 60.20211 | 11.07825 | 686 ft | 15 kts | 15° |
| 2026-05-07 13:41 | 60.20311 | 11.07882 | 687 ft | 15 kts | 16° |
| 2026-05-07 13:41 | 60.20412 | 11.07941 | 687 ft | 15 kts | 16° |
| 2026-05-07 13:42 | 60.20517 | 11.08004 | 682 ft | 15 kts | 26° |
| 2026-05-07 13:42 | 60.20588 | 11.08168 | 682 ft | 16 kts | 56° |
| 2026-05-07 13:42 | 60.20625 | 11.08296 | 681 ft | 5 kts | 64° |
| 2026-05-07 13:42 | 60.20627 | 11.08307 | 682 ft | 0 kts | 64° |
| 2026-05-07 13:44 | 60.20642 | 11.08369 | 682 ft | 11 kts | 64° |
| 2026-05-07 13:44 | 60.20689 | 11.08558 | 681 ft | 15 kts | 63° |
| 2026-05-07 13:44 | 60.20694 | 11.08638 | 681 ft | 2 kts | 168° |
| 2026-05-07 13:44 | 60.20680 | 11.08629 | 679 ft | 13 kts | 197° |
| 2026-05-07 13:45 | 60.20200 | 11.08351 | 685 ft | 129 kts | 195° |
| 2026-05-07 13:45 | 60.19251 | 11.07816 | 1279 ft | 140 kts | 196° |
| 2026-05-07 13:45 | 60.18300 | 11.07195 | 1986 ft | 152 kts | 200° |
| 2026-05-07 13:45 | 60.17288 | 11.06180 | 2291 ft | 179 kts | 225° |
| 2026-05-07 13:46 | 60.16583 | 11.03924 | 2758 ft | 206 kts | 241° |
| 2026-05-07 13:46 | 60.15821 | 11.01269 | 3383 ft | 232 kts | 240° |
| 2026-05-07 13:46 | 60.14959 | 10.98341 | 4097 ft | 254 kts | 240° |
| 2026-05-07 13:46 | 60.14051 | 10.95259 | 5193 ft | 256 kts | 240° |
| 2026-05-07 13:47 | 60.13123 | 10.92192 | 6261 ft | 261 kts | 236° |
| 2026-05-07 13:47 | 60.11657 | 10.89983 | 7125 ft | 271 kts | 201° |
| 2026-05-07 13:47 | 60.09812 | 10.89281 | 8307 ft | 271 kts | 190° |
| 2026-05-07 13:47 | 60.07974 | 10.88295 | 9390 ft | 276 kts | 201° |
| 2026-05-07 13:48 | 60.06146 | 10.86905 | 10379 ft | 280 kts | 204° |
| 2026-05-07 13:48 | 60.04273 | 10.85600 | 11051 ft | 296 kts | 200° |
| 2026-05-07 13:48 | 60.02211 | 10.84392 | 11090 ft | 330 kts | 198° |
| 2026-05-07 13:48 | 59.99894 | 10.83072 | 11079 ft | 360 kts | 199° |
| 2026-05-07 13:49 | 59.97405 | 10.81543 | 11080 ft | 385 kts | 199° |
| 2026-05-07 13:49 | 59.94822 | 10.79927 | 11086 ft | 392 kts | 199° |
| 2026-05-07 13:49 | 59.92201 | 10.78340 | 11086 ft | 395 kts | 199° |
| 2026-05-07 13:49 | 59.89527 | 10.76747 | 11082 ft | 396 kts | 199° |
| 2026-05-07 13:50 | 59.86915 | 10.75165 | 11087 ft | 397 kts | 199° |
| 2026-05-07 13:50 | 59.84272 | 10.73554 | 11056 ft | 392 kts | 199° |
| 2026-05-07 13:50 | 59.81747 | 10.72036 | 10637 ft | 358 kts | 199° |
| 2026-05-07 13:50 | 59.79455 | 10.70660 | 10184 ft | 332 kts | 199° |
| 2026-05-07 13:51 | 59.77413 | 10.68916 | 9591 ft | 311 kts | 215° |
| 2026-05-07 13:51 | 59.75771 | 10.66346 | 9227 ft | 290 kts | 221° |
| 2026-05-07 13:51 | 59.74230 | 10.63912 | 8864 ft | 279 kts | 220° |
| 2026-05-07 13:51 | 59.72713 | 10.61558 | 8499 ft | 275 kts | 220° |
| 2026-05-07 13:52 | 59.71158 | 10.59386 | 8268 ft | 272 kts | 213° |
| 2026-05-07 13:52 | 59.69482 | 10.57640 | 8117 ft | 273 kts | 208° |
| 2026-05-07 13:52 | 59.67786 | 10.55879 | 8001 ft | 273 kts | 211° |
| 2026-05-07 13:52 | 59.66174 | 10.54020 | 7898 ft | 273 kts | 212° |
| 2026-05-07 13:53 | 59.64518 | 10.52091 | 7760 ft | 273 kts | 212° |
| 2026-05-07 13:53 | 59.62871 | 10.50236 | 7644 ft | 272 kts | 211° |
| 2026-05-07 13:53 | 59.61218 | 10.48392 | 7455 ft | 274 kts | 211° |
| 2026-05-07 13:53 | 59.59558 | 10.46521 | 7100 ft | 274 kts | 211° |
| 2026-05-07 13:54 | 59.18366 | 10.25527 | 6861 ft | 11 kts | 184° |